Latest Weather Observations for Brisbane Airport

IDQ60901

Issued at 8:03 pm EST Tuesday 26 July 2016 (issued every 10 minutes, with the page automatically refreshed every 10 minutes)

About weather observations | Map of Brisbane area stations | Latest observations for Brisbane area | Other Formats
Station Details ID: 040842 Name: BRISBANE AERO Lat: -27.39 Lon: 153.13 Height: 4.51 m
Data from the previous 72 hours. | See also: Recent months at Brisbane Airport
Date/Time
EST
Temp
°C
App
Temp
°C
Dew
Point
°C
Rel
Hum
%
Delta-T
°C
Wind Press
QNH
hPa
Press
MSL
hPa
Rain since
9am
mm
Dir  Spd
km/h
Gust
km/h
Spd
kts
Gust
kts
26/07:30pm 16.5 13.6 8.0 57 4.3 NNW 13 15 7 8 1017.4 1017.4 0.0
26/07:00pm 15.4 12.7 8.9 65 3.3 N 13 19 7 10 1017.1 1017.1 0.0
26/06:30pm 15.0 12.5 8.2 64 3.4 N 11 13 6 7 1016.7 1016.7 0.0
26/06:00pm 14.7 12.8 7.6 62 3.5 NNE 7 9 4 5 1016.4 1016.4 0.0
26/05:30pm 14.8 12.1 7.3 61 3.7 N 11 15 6 8 1016.3 1016.3 0.0
26/05:00pm 15.4 13.6 7.3 58 4.0 NNW 6 7 3 4 1016.4 1016.4 0.0
26/04:30pm 16.9 14.4 6.5 50 5.1 NNW 9 9 5 5 1016.4 1016.4 0.0
26/04:00pm 17.5 14.7 5.2 44 5.9 NNW 9 11 5 6 1016.4 1016.4 0.0
26/03:30pm 17.8 14.7 5.7 45 5.9 N 11 15 6 8 1016.5 1016.5 0.0
26/03:00pm 18.3 15.1 2.9 36 7.1 NW 9 17 5 9 1016.3 1016.3 0.0
26/02:30pm 18.2 15.0 3.1 36 7.0 NNW 9 15 5 8 1016.3 1016.3 0.0
26/02:00pm 18.5 14.8 2.3 34 7.4 N 11 13 6 7 1016.8 1016.8 0.0
26/01:30pm 18.5 14.8 2.6 34 7.3 WSW 11 15 6 8 1017.2 1017.2 0.0
26/01:00pm 18.2 14.6 2.7 35 7.1 WNW 11 17 6 9 1017.3 1017.3 0.0
26/12:30pm 18.6 14.6 2.8 35 7.3 WSW 13 22 7 12 1018.0 1017.9 0.0
26/12:00pm 19.0 14.5 2.4 33 7.6 WSW 15 24 8 13 1018.3 1018.2 0.0
26/11:30am 17.5 12.1 1.2 33 7.2 SW 19 26 10 14 1018.9 1018.8 0.0
26/11:00am 17.4 12.7 0.7 32 7.3 SW 15 19 8 10 1019.4 1019.3 0.0
26/10:30am 16.9 11.9 1.5 35 6.8 WSW 17 24 9 13 1019.5 1019.4 0.0
26/10:00am 16.4 11.7 1.0 35 6.7 WSW 15 20 8 11 1019.6 1019.5 0.0
26/09:30am 16.4 12.9 1.4 36 6.6 W 9 17 5 9 1019.6 1019.5 0.0
26/09:00am 16.2 12.4 1.7 37 6.4 NW 11 13 6 7 1019.7 1019.6 0.0
26/08:30am 14.7 12.1 3.1 45 5.2 WNW 6 9 3 5 1019.6 1019.5 0.0
26/08:00am 14.0 11.5 4.7 53 4.3 W 7 9 4 5 1019.1 1019.0 0.0
26/07:30am 13.6 10.6 3.9 52 4.4 W 9 11 5 6 1019.2 1019.1 0.0
26/07:00am 13.0 11.8 4.7 57 3.8 CALM 0 2 0 1 1019.1 1019.0 0.0
26/06:30am 13.3 10.2 3.5 51 4.4 W 9 13 5 7 1018.6 1018.5 0.0
26/06:00am 12.5 10.5 4.3 57 3.7 NE 4 7 2 4 1018.4 1018.3 0.0
26/05:30am 13.3 10.2 3.5 51 4.4 W 9 13 5 7 1018.5 1018.4 0.0
26/05:00am 11.5 8.8 5.4 66 2.8 W 9 11 5 6 1018.3 1018.2 0.0
26/04:30am 11.9 9.1 5.1 63 3.1 NNW 9 11 5 6 1017.6 1017.6 0.0
26/04:00am 11.7 9.4 5.7 66 2.8 WNW 7 11 4 6 1017.7 1017.7 0.0
26/03:30am 12.6 9.1 5.3 61 3.4 W 13 13 7 7 1017.7 1017.7 0.0
26/03:00am 12.4 10.1 5.8 64 3.1 W 7 13 4 7 1017.7 1017.7 0.0
26/02:30am 12.6 9.5 5.5 62 3.3 W 11 15 6 8 1018.1 1018.0 0.0
26/02:00am 11.9 9.6 5.9 66 2.8 NW 7 11 4 6 1017.7 1017.7 0.0
26/01:30am 12.2 10.0 6.0 66 2.9 WNW 7 9 4 5 1018.3 1018.2 0.0
26/01:00am 11.5 10.2 5.9 68 2.6 NNW 2 9 1 5 1018.5 1018.4 0.0
26/12:30am 12.3 9.6 5.4 63 3.2 W 9 11 5 6 1018.6 1018.5 0.0
26/12:00am 12.7 11.7 5.4 61 3.4 CALM 0 0 0 0 1018.3 1018.2 0.0
 
Date/Time
EST
Temp
°C
App
Temp
°C
Dew
Point
°C
Rel
Hum
%
Delta-T
°C
Wind Press
QNH
hPa
Press
MSL
hPa
Rain since
9am
mm
Dir  Spd
km/h
Gust
km/h
Spd
kts
Gust
kts
25/11:30pm 14.0 11.6 4.4 52 4.4 WSW 6 7 3 4 1018.2 1018.1 0.0
25/11:00pm 13.6 11.2 4.4 53 4.2 SW 6 7 3 4 1018.0 1017.9 0.0
25/10:30pm 14.0 12.1 4.7 53 4.3 SW 4 9 2 5 1018.1 1018.0 0.0
25/10:00pm 14.2 11.4 5.2 54 4.2 WSW 9 13 5 7 1018.3 1018.2 0.0
25/09:30pm 14.7 12.1 4.0 48 4.9 SW 7 11 4 6 1018.3 1018.2 0.0
25/09:00pm 14.4 11.5 4.4 51 4.6 SW 9 11 5 6 1018.1 1018.0 0.0
25/08:30pm 14.9 13.6 4.0 48 5.0 CALM 0 6 0 3 1018.0 1017.9 0.0
25/08:00pm 14.9 12.3 4.0 48 5.0 WSW 7 13 4 7 1017.5 1017.5 0.0
25/07:30pm 16.0 11.7 3.3 42 5.8 WSW 15 20 8 11 1017.4 1017.4 0.0
25/07:00pm 15.0 11.2 3.9 47 5.1 WSW 13 15 7 8 1017.2 1017.2 0.0
25/06:30pm 17.8 14.2 2.7 36 6.9 W 11 15 6 8 1016.8 1016.8 0.0
25/06:00pm 18.3 13.8 2.3 34 7.3 W 15 19 8 10 1016.2 1016.2 0.0
25/05:30pm 19.4 14.5 1.8 31 8.0 W 17 19 9 10 1015.9 1015.9 0.0
25/05:00pm 20.3 14.3 1.0 27 8.7 W 22 35 12 19 1015.6 1015.6 0.0
25/04:30pm 21.2 17.9 0.2 24 9.4 NE 7 13 4 7 1015.5 1015.5 0.0
25/04:00pm 21.7 18.2 1.2 25 9.4 NNE 9 15 5 8 1015.5 1015.5 0.0
25/03:30pm 21.9 16.1 0.1 23 9.8 W 20 26 11 14 1015.3 1015.3 0.0
25/03:00pm 21.9 16.2 -0.7 22 10.0 W 19 30 10 16 1015.1 1015.1 0.0
25/02:30pm 22.2 16.9 1.8 26 9.5 W 19 26 10 14 1015.1 1015.1 0.0
25/02:00pm 21.7 16.0 0.8 25 9.5 W 20 32 11 17 1015.5 1015.5 0.0
25/01:30pm 21.4 15.4 1.3 26 9.2 WSW 22 30 12 16 1015.7 1015.7 0.0
25/01:00pm 21.0 16.3 0.9 26 9.1 W 15 24 8 13 1016.1 1016.1 0.0
25/12:30pm 20.5 15.9 1.7 28 8.6 WNW 15 30 8 16 1016.4 1016.4 0.0
25/12:00pm 19.7 15.4 1.3 29 8.3 W 13 17 7 9 1016.9 1016.9 0.0
25/11:30am 19.0 14.9 2.1 32 7.7 WSW 13 24 7 13 1017.6 1017.6 0.0
25/11:00am 18.5 14.4 2.3 34 7.4 SSW 13 24 7 13 1018.1 1018.0 0.0
25/10:30am 18.4 13.5 1.8 33 7.5 SW 17 28 9 15 1018.4 1018.3 0.0
25/10:00am 17.8 12.5 1.7 34 7.2 WSW 19 28 10 15 1018.8 1018.7 0.0
25/09:30am 17.4 13.1 3.0 38 6.6 SW 15 22 8 12 1018.9 1018.8 0.0
25/09:00am 16.8 12.1 3.0 39 6.3 SW 17 26 9 14 1018.9 1018.8 0.0
25/08:30am 16.4 10.2 2.4 39 6.3 SW 24 32 13 17 1018.6 1018.5 0.0
25/08:00am 15.3 10.6 3.4 45 5.4 SSW 17 24 9 13 1018.2 1018.1 0.0
25/07:30am 15.7 11.9 4.0 45 5.4 WSW 13 17 7 9 1017.8 1017.8 0.0
25/07:00am 14.9 9.5 4.3 49 4.9 SW 22 26 12 14 1017.3 1017.3 0.0
25/06:30am 15.1 10.0 4.3 48 5.0 SW 20 24 11 13 1017.0 1017.0 0.0
25/06:00am 15.3 10.8 4.3 48 5.1 WSW 17 19 9 10 1016.5 1016.5 0.0
25/05:30am 15.0 13.9 5.0 51 4.7 CALM 0 0 0 0 1016.2 1016.2 0.0
25/05:00am 14.0 12.0 6.3 60 3.7 WSW 6 9 3 5 1015.8 1015.8 0.0
25/04:30am 13.6 11.1 6.5 62 3.4 WNW 9 13 5 7 1015.5 1015.5 0.0
25/04:00am 13.7 10.5 5.1 56 4.0 WNW 11 15 6 8 1015.3 1015.3 0.0
25/03:30am 14.2 10.8 5.8 57 4.0 NW 13 17 7 9 1015.3 1015.3 0.0
25/03:00am 14.9 10.9 4.9 51 4.7 NW 15 17 8 9 1015.1 1015.1 0.0
25/02:30am 13.8 10.9 6.3 60 3.6 W 11 13 6 7 1015.2 1015.2 0.0
25/02:00am 11.9 9.5 8.7 81 1.6 SW 11 13 6 7 1015.2 1015.2 0.0
25/01:30am 12.5 10.6 9.1 80 1.7 WSW 9 11 5 6 1015.4 1015.4 0.0
25/01:00am 12.7 11.2 9.3 80 1.7 WNW 7 7 4 4 1015.6 1015.6 0.0
25/12:30am 12.6 11.1 9.0 79 1.8 WNW 7 9 4 5 1015.7 1015.7 0.0
25/12:00am 12.7 11.1 8.9 78 1.9 WSW 7 13 4 7 1015.7 1015.7 0.0
 
Date/Time
EST
Temp
°C
App
Temp
°C
Dew
Point
°C
Rel
Hum
%
Delta-T
°C
Wind Press
QNH
hPa
Press
MSL
hPa
Rain since
9am
mm
Dir  Spd
km/h
Gust
km/h
Spd
kts
Gust
kts
24/11:30pm 13.0 12.8 9.0 77 2.0 CALM 0 0 0 0 1015.5 1015.5 0.0
24/11:00pm 13.5 12.1 9.4 76 2.1 NNW 7 7 4 4 1015.6 1015.6 0.0
24/10:30pm 13.8 12.4 9.7 76 2.1 W 7 9 4 5 1015.9 1015.9 0.0
24/10:00pm 13.7 12.3 9.6 76 2.1 WSW 7 9 4 5 1015.5 1015.5 0.0
24/09:30pm 15.2 13.4 9.6 69 2.9 NW 9 26 5 14 1015.2 1015.2 0.0
24/09:00pm 13.9 12.4 9.2 73 2.4 NW 7 11 4 6 1015.1 1015.1 0.0
24/08:30pm 14.2 12.2 10.2 77 2.1 NNW 11 20 6 11 1015.2 1015.2 0.0
24/08:00pm 14.0 11.8 9.5 74 2.3 NNW 11 19 6 10 1015.0 1015.0 0.0
24/07:30pm 15.1 13.7 9.5 69 2.9 NW 7 13 4 7 1015.0 1015.0 0.0
24/07:00pm 15.1 13.8 10.1 72 2.6 NW 7 11 4 6 1014.9 1014.9 0.0
24/06:30pm 15.4 15.6 10.5 72 2.6 CALM 0 4 0 2 1014.6 1014.6 0.0
24/06:00pm 15.3 13.5 9.5 68 3.0 NNE 9 9 5 5 1013.8 1013.8 0.0
24/05:30pm 15.3 15.2 9.5 68 3.0 CALM 0 0 0 0 1013.7 1013.7 0.0
24/05:00pm 18.4 16.4 8.8 53 5.0 NE 9 11 5 6 1013.5 1013.5 0.0
24/04:30pm 19.3 17.2 8.3 49 5.7 NE 9 11 5 6 1013.1 1013.1 0.0
24/04:00pm 19.4 16.4 7.9 47 5.9 NE 13 17 7 9 1013.1 1013.1 0.0
24/03:30pm 19.9 16.6 7.9 46 6.2 NE 15 19 8 10 1013.2 1013.2 0.0
24/03:00pm 20.3 17.2 7.4 43 6.6 NE 13 17 7 9 1013.1 1013.1 0.0
24/02:30pm 20.3 17.2 7.4 43 6.6 NNE 13 17 7 9 1013.5 1013.5 0.0
24/02:00pm 20.2 17.3 6.7 41 6.8 NE 11 17 6 9 1014.0 1014.0 0.0
24/01:30pm 20.0 17.5 6.4 41 6.8 NE 9 15 5 8 1014.6 1014.6 0.0
24/01:00pm 19.9 17.3 6.0 40 6.9 ESE 9 13 5 7 1014.8 1014.8 0.0
24/12:30pm 20.0 17.4 5.9 39 7.0 ESE 9 15 5 8 1015.1 1015.1 0.0
24/12:00pm 19.9 17.0 4.6 36 7.4 ESE 9 15 5 8 1015.7 1015.7 0.0
24/11:30am 19.7 16.5 3.0 33 7.8 ESE 9 15 5 8 1016.1 1016.1 0.0
24/11:00am 19.8 16.4 1.9 30 8.2 ESE 9 15 5 8 1016.7 1016.7 0.0
24/10:30am 19.0 15.3 0.0 28 8.3 SW 9 13 5 7 1017.2 1017.2 0.0
24/10:00am 18.6 15.2 1.8 32 7.6 WSW 9 13 5 7 1017.3 1017.3 0.0
24/09:30am 18.1 15.1 1.9 33 7.3 SW 7 11 4 6 1017.3 1017.3 0.0
24/09:00am 17.1 13.6 1.2 34 7.0 SW 9 11 5 6 1017.0 1017.0 0.0
24/08:30am 16.5 13.4 3.4 41 6.0 WNW 9 13 5 7 1016.8 1016.8 0.0
24/08:00am 14.8 12.1 3.9 48 5.0 SSW 7 9 4 5 1016.6 1016.6 0.0
24/07:30am 14.4 13.2 4.7 52 4.5 CALM 0 0 0 0 1016.5 1016.5 0.0
24/07:00am 12.9 9.7 2.9 50 4.4 SSE 9 17 5 9 1016.0 1016.0 0.0
24/06:30am 13.3 10.7 3.2 50 4.5 ESE 6 7 3 4 1015.7 1015.7 0.0
24/06:00am 12.5 8.7 4.1 56 3.8 SSW 13 17 7 9 1015.2 1015.2 0.0
24/05:30am 13.6 10.0 3.0 48 4.7 SSW 11 13 6 7 1014.3 1014.3 0.0
24/05:00am 13.1 9.7 3.8 53 4.2 SSW 11 15 6 8 1013.9 1013.9 0.0
24/04:30am 14.5 11.7 2.9 45 5.2 SSW 7 9 4 5 1013.8 1013.8 0.0
24/04:00am 14.8 10.4 2.7 44 5.4 SSW 15 24 8 13 1014.0 1014.0 0.0
24/03:30am 15.1 10.0 2.9 44 5.5 SW 19 26 10 14 1013.8 1013.8 0.0
24/03:00am 15.6 10.9 3.0 43 5.7 WSW 17 22 9 12 1013.9 1013.9 0.0
24/02:30am 16.2 11.0 3.3 42 5.9 W 20 26 11 14 1013.6 1013.6 0.0
24/02:00am 16.4 11.3 4.2 44 5.7 W 20 30 11 16 1013.5 1013.5 0.0
24/01:30am 16.3 12.6 4.6 46 5.5 W 13 17 7 9 1013.8 1013.8 0.0
24/01:00am 16.3 13.0 4.6 46 5.5 W 11 17 6 9 1013.8 1013.8 0.0
24/12:30am 15.4 12.7 5.8 52 4.6 SW 9 17 5 9 1013.7 1013.7 0.0
24/12:00am 16.3 12.7 5.2 47 5.3 WSW 13 19 7 10 1013.5 1013.5 0.0
 
Date/Time
EST
Temp
°C
App
Temp
°C
Dew
Point
°C
Rel
Hum
%
Delta-T
°C
Wind Press
QNH
hPa
Press
MSL
hPa
Rain since
9am
mm
Dir  Spd
km/h
Gust
km/h
Spd
kts
Gust
kts
23/11:30pm 17.4 13.3 4.2 41 6.2 W 15 19 8 10 1013.4 1013.4 0.0
23/11:00pm 17.2 11.9 4.8 44 5.9 WSW 22 30 12 16 1013.1 1013.1 0.0
23/10:30pm 17.4 12.6 5.6 45 5.7 SW 20 28 11 15 1013.0 1013.0 0.0
23/10:00pm 19.1 13.9 5.4 40 6.7 WSW 22 28 12 15 1012.8 1012.8 0.0
23/09:30pm 19.9 14.3 5.5 39 7.1 WSW 24 33 13 18 1012.6 1012.6 0.0
23/09:00pm 20.2 14.7 5.9 39 7.1 WSW 24 33 13 18 1012.5 1012.5 0.0
23/08:30pm 20.8 17.0 7.4 42 6.9 SSW 17 22 9 12 1012.2 1012.2 0.0

Latest Capital City Observations: Canberra | Sydney | Melbourne | Brisbane | Adelaide | Perth | Hobart | Darwin

Other Formats:

Comma delimited format used in spreadsheet applications
http://www.bom.gov.au/fwo/IDQ60901/IDQ60901.94578.axf

JavaScript Object Notation format (JSON) in row-major order
http://www.bom.gov.au/fwo/IDQ60901/IDQ60901.94578.json